Time;durP1;ratioP1;P1;durP2;ratioP2;P2;SDS_P1;SDS_P2;PMS_P1;PMS_P2;Temp;Humidity;BMP_temperature;BMP_pressure;BME280_temperature;BME280_humidity;BME280_pressure;Samples;Min_cycle;Max_cycle;Signal;HPM_P1;HPM_P2
2023/08/07 00:00:02;;;;;;;4.28;1.00;;;13.60;99.90;;;;;;4878446;29;20375;-78
2023/08/07 00:02:31;;;;;;;3.20;1.08;;;13.60;99.90;;;;;;4881495;29;20049;-78
2023/08/07 00:04:58;;;;;;;4.70;0.77;;;13.50;99.90;;;;;;4865900;29;20052;-78
2023/08/07 00:07:25;;;;;;;4.07;0.82;;;13.50;99.90;;;;;;4881063;29;20055;-77
2023/08/07 00:09:52;;;;;;;2.08;0.52;;;13.60;99.90;;;;;;4911121;29;20512;-78
2023/08/07 00:12:19;;;;;;;1.23;0.50;;;13.50;99.90;;;;;;4856543;29;20064;-83
2023/08/07 00:14:50;;;;;;;2.85;0.80;;;13.50;99.90;;;;;;4849141;29;20053;-85
2023/08/07 00:17:17;;;;;;;4.35;0.77;;;13.60;99.90;;;;;;4896426;29;20125;-84
2023/08/07 00:19:44;;;;;;;2.80;0.95;;;13.50;99.90;;;;;;4863016;29;20040;-84
2023/08/07 00:22:11;;;;;;;2.13;0.80;;;13.50;99.90;;;;;;4866821;29;20096;-84
2023/08/07 00:24:39;;;;;;;2.33;0.75;;;13.50;99.90;;;;;;4879776;29;20051;-84
2023/08/07 00:27:09;;;;;;;2.35;0.70;;;13.50;99.90;;;;;;4880745;29;20063;-85
2023/08/07 00:29:36;;;;;;;3.97;0.73;;;13.50;99.90;;;;;;4880237;29;20068;-85
2023/08/07 00:32:04;;;;;;;1.95;0.50;;;13.50;99.90;;;;;;4866586;29;20136;-84
2023/08/07 00:34:31;;;;;;;2.85;0.60;;;13.50;99.90;;;;;;4876040;29;20048;-85
2023/08/07 00:36:58;;;;;;;3.13;0.50;;;13.50;99.90;;;;;;4867967;29;20060;-85
2023/08/07 00:39:27;;;;;;;1.70;0.50;;;13.50;99.90;;;;;;4875369;29;20052;-86
2023/08/07 00:41:54;;;;;;;4.43;0.40;;;13.40;99.90;;;;;;4894573;29;21104;-86
2023/08/07 00:44:23;;;;;;;3.75;0.80;;;13.40;99.90;;;;;;4894856;29;20066;-85
2023/08/07 00:46:51;;;;;;;2.75;0.50;;;13.40;99.90;;;;;;4865124;29;20052;-83
2023/08/07 00:49:39;;;;;;;4.55;1.30;;;13.50;99.90;;;;;;4859403;29;20084;-85
2023/08/07 00:52:06;;;;;;;2.70;0.60;;;13.40;99.90;;;;;;4809836;29;20072;-83
2023/08/07 00:54:35;;;;;;;2.83;0.60;;;13.40;99.90;;;;;;4651048;29;20051;-83
2023/08/07 00:57:11;;;;;;;3.17;0.73;;;13.40;99.90;;;;;;4889816;29;20100;-85
2023/08/07 00:59:58;;;;;;;3.47;0.90;;;13.50;99.90;;;;;;4894705;29;20072;-84
2023/08/07 01:02:25;;;;;;;3.45;0.60;;;13.50;99.90;;;;;;4879499;29;20087;-83
2023/08/07 01:04:52;;;;;;;3.53;0.60;;;13.40;99.90;;;;;;4881723;29;20115;-84
2023/08/07 01:07:19;;;;;;;3.72;1.15;;;13.40;99.90;;;;;;4890082;29;20056;-84
2023/08/07 01:09:47;;;;;;;4.05;1.10;;;13.40;99.90;;;;;;4881956;29;20552;-85
2023/08/07 01:12:27;;;;;;;4.20;0.93;;;13.40;99.90;;;;;;4864228;29;20060;-86
2023/08/07 01:15:18;;;;;;;1.77;0.60;;;13.40;99.90;;;;;;4896054;29;20055;-85
2023/08/07 01:17:46;;;;;;;4.47;1.02;;;13.40;99.90;;;;;;4894618;29;20109;-87
2023/08/07 01:20:14;;;;;;;5.97;0.85;;;13.40;99.90;;;;;;4876533;29;20043;-86
2023/08/07 01:22:42;;;;;;;4.85;0.80;;;13.40;99.90;;;;;;4861915;29;20045;-85
2023/08/07 01:25:12;;;;;;;3.75;1.00;;;13.30;99.90;;;;;;4868689;29;20052;-86
2023/08/07 01:28:10;;;;;;;5.97;0.77;;;13.30;99.90;;;;;;4884390;29;20036;-84
2023/08/07 01:30:42;;;;;;;5.22;1.13;;;13.30;99.90;;;;;;4875902;29;20045;-86
2023/08/07 01:33:22;;;;;;;;;;;13.30;99.90;;;;;;4892700;29;21050;-85
2023/08/07 01:35:55;;;;;;;4.95;0.88;;;13.30;99.90;;;;;;4879418;29;20346;-85
2023/08/07 01:38:26;;;;;;;5.00;1.02;;;13.30;99.90;;;;;;4878115;29;20052;-83
2023/08/07 01:40:56;;;;;;;5.65;0.85;;;13.30;99.90;;;;;;4857332;29;20051;-83
2023/08/07 01:43:28;;;;;;;4.25;0.88;;;13.20;99.90;;;;;;4882557;29;20131;-83
2023/08/07 01:45:55;;;;;;;4.22;0.93;;;13.20;99.90;;;;;;4847332;29;20056;-84
2023/08/07 01:48:22;;;;;;;4.75;0.80;;;13.20;99.90;;;;;;4879494;29;20052;-83
2023/08/07 01:50:54;;;;;;;5.25;1.30;;;13.30;99.90;;;;;;4866186;29;20500;-87
2023/08/07 01:53:21;;;;;;;8.43;1.08;;;13.30;99.90;;;;;;4864089;29;20040;-84
2023/08/07 01:55:48;;;;;;;6.72;1.00;;;13.30;99.90;;;;;;4846706;29;20040;-83
2023/08/07 01:58:15;;;;;;;6.60;1.05;;;13.30;99.90;;;;;;4894084;29;20043;-85
2023/08/07 02:00:42;;;;;;;5.38;1.40;;;13.30;99.90;;;;;;4864395;29;20515;-85
2023/08/07 02:03:12;;;;;;;4.75;1.15;;;13.30;99.90;;;;;;4895253;29;20049;-84
2023/08/07 02:05:39;;;;;;;4.05;0.90;;;13.30;99.90;;;;;;4861354;29;20461;-85
2023/08/07 02:08:06;;;;;;;7.68;1.30;;;13.30;99.90;;;;;;4874730;29;20136;-86
2023/08/07 02:10:34;;;;;;;5.15;1.20;;;13.30;99.90;;;;;;4879880;29;20745;-86
2023/08/07 02:13:02;;;;;;;6.43;1.40;;;13.30;99.90;;;;;;4876469;29;20052;-86
2023/08/07 02:15:29;;;;;;;7.78;1.83;;;13.30;99.90;;;;;;4873256;29;20417;-81
2023/08/07 02:17:56;;;;;;;4.93;1.58;;;13.30;99.90;;;;;;4863181;29;20040;-81
2023/08/07 02:20:24;;;;;;;6.05;1.15;;;13.30;99.90;;;;;;4864696;29;20071;-80
2023/08/07 02:22:51;;;;;;;4.22;1.23;;;13.30;99.90;;;;;;4877869;29;20436;-81
2023/08/07 02:25:19;;;;;;;7.57;1.70;;;13.30;99.90;;;;;;4849500;29;20422;-81
2023/08/07 02:27:46;;;;;;;4.80;1.20;;;13.40;99.90;;;;;;4865940;29;20058;-80
2023/08/07 02:30:13;;;;;;;6.45;1.70;;;13.40;99.90;;;;;;4894249;29;20092;-80
2023/08/07 02:32:43;;;;;;;6.75;1.63;;;13.40;99.90;;;;;;4863619;29;20987;-81
2023/08/07 02:35:11;;;;;;;4.75;1.30;;;13.40;99.90;;;;;;4865982;29;20048;-81
2023/08/07 02:37:41;;;;;;;5.15;1.85;;;13.40;99.90;;;;;;4879065;29;20048;-81
2023/08/07 02:40:09;;;;;;;3.70;1.02;;;13.40;99.90;;;;;;4854332;29;20405;-81
2023/08/07 02:42:37;;;;;;;8.95;1.20;;;13.40;99.90;;;;;;4863058;29;20905;-81
2023/08/07 02:45:07;;;;;;;9.75;1.50;;;13.40;99.90;;;;;;4878537;29;20088;-81
2023/08/07 02:47:34;;;;;;;7.13;1.20;;;13.40;99.90;;;;;;4846054;29;20052;-81
2023/08/07 02:50:01;;;;;;;5.20;1.05;;;13.40;99.90;;;;;;4848592;29;20987;-81
2023/08/07 02:52:30;;;;;;;4.68;1.20;;;13.40;99.90;;;;;;4866465;29;20045;-81
2023/08/07 02:54:57;;;;;;;2.95;1.17;;;13.40;99.90;;;;;;4907329;29;20116;-81
2023/08/07 02:57:24;;;;;;;8.27;1.75;;;13.40;99.90;;;;;;4854169;29;20053;-81
2023/08/07 02:59:52;;;;;;;6.50;1.70;;;13.40;99.90;;;;;;4866374;29;20209;-81
2023/08/07 03:02:19;;;;;;;6.97;1.80;;;13.40;99.90;;;;;;4851637;29;20049;-81
2023/08/07 03:04:46;;;;;;;5.45;1.50;;;13.40;99.90;;;;;;4897141;29;20092;-81
2023/08/07 03:07:51;;;;;;;6.32;1.70;;;13.40;99.90;;;;;;4867892;29;20052;-81
2023/08/07 03:10:19;;;;;;;9.10;2.35;;;13.40;99.90;;;;;;4884756;29;20059;-81
2023/08/07 03:12:46;;;;;;;7.85;2.30;;;13.40;99.90;;;;;;4858068;29;20503;-81
2023/08/07 03:15:13;;;;;;;7.20;1.83;;;13.40;99.90;;;;;;4866013;29;20044;-81
2023/08/07 03:17:40;;;;;;;8.65;2.25;;;13.40;99.90;;;;;;4898809;29;20045;-81
2023/08/07 03:20:08;;;;;;;6.05;2.15;;;13.40;99.90;;;;;;4870613;29;20044;-81
2023/08/07 03:22:35;;;;;;;6.75;1.98;;;13.40;99.90;;;;;;4872040;29;20045;-82
2023/08/07 03:25:06;;;;;;;8.43;1.70;;;13.30;99.90;;;;;;4867034;29;20055;-82
2023/08/07 03:27:33;;;;;;;7.22;1.90;;;13.40;99.90;;;;;;4897698;29;20564;-82
2023/08/07 03:30:00;;;;;;;7.55;1.88;;;13.30;99.90;;;;;;4867386;29;20057;-82
2023/08/07 03:32:29;;;;;;;7.13;2.10;;;13.40;99.90;;;;;;4890532;29;20053;-82
2023/08/07 03:34:56;;;;;;;4.88;2.00;;;13.40;99.90;;;;;;4867558;29;20045;-80
2023/08/07 03:37:24;;;;;;;7.90;2.00;;;13.40;99.90;;;;;;4866032;29;20373;-81
2023/08/07 03:39:51;;;;;;;6.18;1.52;;;13.40;99.90;;;;;;4866433;29;20045;-81
2023/08/07 03:42:19;;;;;;;7.45;1.40;;;13.40;99.90;;;;;;4851699;29;20049;-80
2023/08/07 03:44:47;;;;;;;5.72;1.70;;;13.40;99.90;;;;;;4879128;29;20049;-80
2023/08/07 03:47:14;;;;;;;3.40;1.38;;;13.40;99.90;;;;;;4846516;29;20063;-80
2023/08/07 03:49:43;;;;;;;6.05;1.58;;;13.40;99.90;;;;;;4852074;29;20390;-80
2023/08/07 03:52:10;;;;;;;4.25;1.10;;;13.40;99.90;;;;;;4876972;29;20053;-80
2023/08/07 03:55:15;;;;;;;7.05;1.77;;;13.40;99.90;;;;;;4879253;29;20988;-80
2023/08/07 03:57:44;;;;;;;6.43;1.65;;;13.40;99.90;;;;;;4895506;29;20048;-80
2023/08/07 04:00:14;;;;;;;5.20;1.63;;;13.40;99.90;;;;;;4864573;29;20056;-79
2023/08/07 04:02:41;;;;;;;6.40;1.65;;;13.40;99.90;;;;;;4893060;29;20371;-79
2023/08/07 04:05:10;;;;;;;10.75;1.90;;;13.40;99.90;;;;;;4881265;29;20045;-79
2023/08/07 04:07:38;;;;;;;7.68;1.67;;;13.40;99.90;;;;;;4897407;29;20068;-80
2023/08/07 04:10:05;;;;;;;8.77;1.95;;;13.40;99.90;;;;;;4867154;29;20052;-80
2023/08/07 04:12:32;;;;;;;8.63;1.98;;;13.40;99.90;;;;;;4864143;29;20048;-80
2023/08/07 04:14:59;;;;;;;9.73;1.73;;;13.40;99.90;;;;;;4716472;29;20560;-79
2023/08/07 04:17:26;;;;;;;6.57;1.30;;;13.40;99.90;;;;;;4894066;29;20044;-81
2023/08/07 04:19:54;;;;;;;3.78;1.02;;;13.40;99.90;;;;;;4875551;29;20045;-80
2023/08/07 04:22:23;;;;;;;7.90;1.60;;;13.40;99.90;;;;;;4880325;29;20040;-80
2023/08/07 04:24:50;;;;;;;5.88;1.02;;;13.40;99.90;;;;;;4855599;29;20048;-80
2023/08/07 04:27:17;;;;;;;10.88;1.40;;;13.40;99.90;;;;;;4869532;29;20056;-80
2023/08/07 04:29:45;;;;;;;6.03;1.27;;;13.40;99.90;;;;;;4882966;29;20052;-80
2023/08/07 04:32:12;;;;;;;4.13;1.63;;;13.40;99.90;;;;;;4847504;29;20067;-79
2023/08/07 04:34:40;;;;;;;2.90;0.95;;;13.40;99.90;;;;;;4847926;29;20482;-78
2023/08/07 04:37:07;;;;;;;6.95;1.65;;;13.40;99.90;;;;;;4881666;29;20500;-79
2023/08/07 04:39:35;;;;;;;5.85;1.38;;;13.40;99.90;;;;;;4886616;29;20052;-79
2023/08/07 04:42:03;;;;;;;3.72;1.00;;;13.40;99.90;;;;;;4864309;29;20051;-79
2023/08/07 04:44:30;;;;;;;4.60;1.15;;;13.40;99.90;;;;;;4862334;29;20136;-79
2023/08/07 04:46:57;;;;;;;5.47;1.27;;;13.40;99.90;;;;;;4862911;29;20143;-79
2023/08/07 04:49:24;;;;;;;6.10;1.20;;;13.40;99.90;;;;;;4883094;29;20057;-81
2023/08/07 04:51:54;;;;;;;3.78;1.27;;;13.50;99.90;;;;;;4847838;29;20060;-82
2023/08/07 04:54:21;;;;;;;4.50;1.75;;;13.50;99.90;;;;;;4861821;29;20060;-82
2023/08/07 04:56:48;;;;;;;3.72;1.10;;;13.50;99.90;;;;;;4877636;29;20390;-80
2023/08/07 04:59:15;;;;;;;4.53;1.30;;;13.50;99.90;;;;;;4882111;29;20052;-80
2023/08/07 05:01:42;;;;;;;6.47;1.02;;;13.50;99.90;;;;;;4865072;29;20139;-82
2023/08/07 05:04:10;;;;;;;2.97;1.40;;;13.50;99.90;;;;;;4849075;29;20060;-81
2023/08/07 05:06:37;;;;;;;5.28;1.30;;;13.50;99.90;;;;;;4861856;29;20040;-86
2023/08/07 05:09:04;;;;;;;4.38;1.25;;;13.50;99.90;;;;;;4862501;29;20060;-85
2023/08/07 05:11:31;;;;;;;6.35;1.40;;;13.50;99.90;;;;;;4848198;29;20060;-85
2023/08/07 05:13:58;;;;;;;2.83;1.10;;;13.60;99.90;;;;;;4868545;29;20052;-85
2023/08/07 05:16:25;;;;;;;5.00;1.70;;;13.60;99.90;;;;;;4870125;29;20179;-84
2023/08/07 05:18:52;;;;;;;4.82;1.13;;;13.60;99.90;;;;;;4884884;29;20028;-85
2023/08/07 05:21:20;;;;;;;5.22;1.55;;;13.60;99.90;;;;;;4899849;29;20045;-85
2023/08/07 05:23:47;;;;;;;7.30;1.83;;;13.60;99.90;;;;;;4875280;29;20140;-85
2023/08/07 05:26:16;;;;;;;7.25;2.30;;;13.60;99.90;;;;;;4880025;29;20402;-86
2023/08/07 05:28:43;;;;;;;6.70;2.80;;;13.60;99.90;;;;;;4863290;29;20041;-87
2023/08/07 05:31:10;;;;;;;6.78;2.08;;;13.60;99.90;;;;;;4848311;29;20049;-81
2023/08/07 05:33:37;;;;;;;8.35;1.83;;;13.60;99.90;;;;;;4848807;29;20049;-81
2023/08/07 05:36:07;;;;;;;5.47;1.80;;;13.60;99.90;;;;;;4860580;29;20389;-81
2023/08/07 05:38:36;;;;;;;9.88;1.88;;;13.60;99.90;;;;;;4848807;29;20052;-81
2023/08/07 05:41:03;;;;;;;8.45;2.92;;;13.70;99.90;;;;;;4895531;29;20044;-81
2023/08/07 05:43:30;;;;;;;4.72;2.03;;;13.60;99.90;;;;;;4877906;29;20545;-80
2023/08/07 05:45:57;;;;;;;8.50;1.83;;;13.60;99.90;;;;;;4846526;29;20045;-85
2023/08/07 05:48:24;;;;;;;6.93;1.60;;;13.70;99.90;;;;;;4844949;29;20553;-85
2023/08/07 05:50:52;;;;;;;7.45;2.00;;;13.70;99.90;;;;;;4860742;29;20047;-85
2023/08/07 05:53:20;;;;;;;6.97;1.95;;;13.70;99.90;;;;;;4893494;29;20055;-86
2023/08/07 05:55:47;;;;;;;13.73;3.15;;;13.80;99.90;;;;;;4895482;29;20099;-85
2023/08/07 05:58:33;;;;;;;8.45;2.20;;;13.80;99.90;;;;;;4879723;29;20041;-85
2023/08/07 06:01:00;;;;;;;7.05;1.95;;;13.80;99.90;;;;;;4846899;29;20044;-81
2023/08/07 06:03:28;;;;;;;8.35;2.35;;;13.90;99.90;;;;;;4844959;29;20413;-80
2023/08/07 06:05:55;;;;;;;8.85;2.15;;;13.90;99.90;;;;;;4876098;29;20108;-80
2023/08/07 06:08:22;;;;;;;6.53;2.10;;;13.90;99.90;;;;;;4863625;29;20040;-79
2023/08/07 06:10:49;;;;;;;10.05;2.55;;;14.00;99.90;;;;;;4894508;29;20060;-80
2023/08/07 06:13:16;;;;;;;4.95;1.67;;;14.00;99.90;;;;;;4891915;29;20052;-80
2023/08/07 06:16:01;;;;;;;10.60;2.28;;;14.00;99.90;;;;;;4870895;29;20139;-85
2023/08/07 06:18:29;;;;;;;7.32;2.00;;;14.00;99.90;;;;;;4850972;29;20051;-85
2023/08/07 06:20:56;;;;;;;5.82;2.17;;;14.00;99.90;;;;;;4896086;29;20060;-87
2023/08/07 06:23:23;;;;;;;6.32;2.00;;;14.00;99.90;;;;;;4845056;29;20044;-84
2023/08/07 06:25:51;;;;;;;5.55;1.70;;;14.00;99.90;;;;;;4863592;29;20044;-87
2023/08/07 06:28:24;;;;;;;8.93;2.22;;;14.10;99.90;;;;;;4876970;29;20474;-82
2023/08/07 06:30:51;;;;;;;5.95;1.75;;;14.10;99.90;;;;;;4880370;29;20057;-83
2023/08/07 06:33:18;;;;;;;7.13;1.77;;;14.20;99.90;;;;;;4855587;29;20064;-83
2023/08/07 06:35:45;;;;;;;8.27;1.95;;;14.20;99.90;;;;;;4899819;29;20044;-83
2023/08/07 06:38:12;;;;;;;8.85;2.03;;;14.30;99.90;;;;;;4863714;29;20097;-83
2023/08/07 06:40:39;;;;;;;10.18;2.50;;;14.30;99.90;;;;;;4880047;29;20048;-83
2023/08/07 06:43:06;;;;;;;6.50;2.15;;;14.30;99.90;;;;;;4877924;29;20084;-84
2023/08/07 06:45:34;;;;;;;10.00;2.65;;;14.30;99.90;;;;;;4863459;29;20045;-85
2023/08/07 06:48:01;;;;;;;7.05;2.03;;;14.40;99.90;;;;;;4864993;29;20066;-84
2023/08/07 06:50:28;;;;;;;5.95;1.98;;;14.50;99.90;;;;;;4842955;29;20061;-85
2023/08/07 06:52:55;;;;;;;6.82;1.70;;;14.50;99.90;;;;;;4863463;29;20096;-84
2023/08/07 06:55:22;;;;;;;5.97;2.13;;;14.50;99.90;;;;;;4899540;29;20047;-84
2023/08/07 06:57:49;;;;;;;9.90;2.05;;;14.60;99.90;;;;;;4880932;29;20052;-83
2023/08/07 07:00:18;;;;;;;4.82;1.58;;;14.70;99.90;;;;;;4848422;29;20049;-84
2023/08/07 07:02:45;;;;;;;5.40;2.03;;;14.80;99.90;;;;;;4866009;29;20045;-83
2023/08/07 07:05:12;;;;;;;7.53;2.00;;;14.90;99.90;;;;;;4879796;29;20040;-86
2023/08/07 07:07:39;;;;;;;9.75;1.85;;;15.00;99.90;;;;;;4887519;29;20059;-84
2023/08/07 07:10:07;;;;;;;11.38;2.35;;;15.10;99.90;;;;;;4875735;29;20056;-84
2023/08/07 07:12:34;;;;;;;5.63;2.10;;;15.20;99.90;;;;;;4879154;29;20155;-84
2023/08/07 07:15:01;;;;;;;5.82;1.63;;;15.30;99.90;;;;;;4879447;29;20080;-84
2023/08/07 07:17:29;;;;;;;9.27;1.60;;;15.40;99.90;;;;;;4881001;29;20135;-85
2023/08/07 07:19:56;;;;;;;6.57;1.70;;;15.30;99.90;;;;;;4866530;29;20052;-84
2023/08/07 07:22:23;;;;;;;6.57;1.55;;;15.40;99.90;;;;;;4882351;29;20053;-84
2023/08/07 07:24:50;;;;;;;6.72;2.03;;;15.50;99.90;;;;;;4865822;29;20040;-85
2023/08/07 07:27:17;;;;;;;7.32;1.60;;;15.60;99.90;;;;;;4881545;29;20083;-85
2023/08/07 07:29:47;;;;;;;5.57;1.83;;;15.60;99.90;;;;;;4864522;29;20054;-86
2023/08/07 07:32:15;;;;;;;6.07;2.05;;;15.60;99.90;;;;;;4872298;29;20065;-86
2023/08/07 07:34:44;;;;;;;7.20;2.08;;;15.70;99.90;;;;;;4862825;29;20438;-85
2023/08/07 07:37:16;;;;;;;8.32;1.60;;;15.60;99.90;;;;;;4869025;29;20049;-85
2023/08/07 07:39:43;;;;;;;5.35;1.83;;;15.60;99.90;;;;;;4865141;29;20100;-86
2023/08/07 07:42:10;;;;;;;7.57;2.03;;;15.60;99.90;;;;;;4876360;29;20519;-83
2023/08/07 07:44:39;;;;;;;6.90;2.30;;;15.50;99.90;;;;;;4897781;29;20131;-87
2023/08/07 07:47:08;;;;;;;6.70;1.95;;;15.30;99.90;;;;;;4863231;29;20060;-85
2023/08/07 07:49:44;;;;;;;5.22;1.88;;;15.40;99.90;;;;;;4878030;29;20409;-85
2023/08/07 07:52:11;;;;;;;7.68;2.03;;;15.50;99.90;;;;;;4880554;29;20067;-83
2023/08/07 07:54:38;;;;;;;5.57;1.60;;;15.80;99.90;;;;;;4882224;29;20041;-86
2023/08/07 07:57:05;;;;;;;5.78;1.73;;;16.00;99.90;;;;;;4879634;29;20401;-84
2023/08/07 07:59:32;;;;;;;10.35;2.30;;;16.10;99.90;;;;;;4870328;29;20040;-85
2023/08/07 08:01:59;;;;;;;9.77;2.60;;;16.10;99.60;;;;;;4895330;29;20110;-85
2023/08/07 08:04:27;;;;;;;6.90;2.38;;;15.90;99.60;;;;;;4880524;29;20068;-85
2023/08/07 08:06:55;;;;;;;8.18;2.40;;;15.70;99.70;;;;;;4881587;29;20510;-85
2023/08/07 08:09:22;;;;;;;5.80;2.00;;;15.50;99.70;;;;;;4850026;29;20406;-85
2023/08/07 08:11:49;;;;;;;9.48;2.33;;;15.40;99.70;;;;;;4866113;29;20045;-87
2023/08/07 08:14:16;;;;;;;10.60;2.28;;;15.40;99.60;;;;;;4865320;29;20051;-86
2023/08/07 08:16:43;;;;;;;8.80;2.13;;;15.20;99.50;;;;;;4880318;29;20256;-84
2023/08/07 08:19:11;;;;;;;7.38;2.05;;;15.10;99.70;;;;;;4853440;29;20396;-86
2023/08/07 08:21:38;;;;;;;6.32;2.13;;;14.90;99.90;;;;;;4879766;29;20182;-86
2023/08/07 08:24:13;;;;;;;6.90;1.70;;;14.90;99.90;;;;;;4867344;29;20381;-87
2023/08/07 08:26:40;;;;;;;6.82;2.15;;;14.90;99.90;;;;;;4865934;29;20447;-85
2023/08/07 08:29:10;;;;;;;7.10;2.45;;;14.90;99.90;;;;;;4897429;29;20048;-84
2023/08/07 08:31:37;;;;;;;10.82;2.83;;;15.10;99.80;;;;;;4885402;29;20044;-87
2023/08/07 08:34:07;;;;;;;5.63;2.35;;;15.30;99.10;;;;;;4886288;29;20049;-88
2023/08/07 08:36:37;;;;;;;8.80;2.50;;;15.50;98.90;;;;;;4896652;29;20056;-85
2023/08/07 08:39:05;;;;;;;7.43;2.45;;;15.70;98.00;;;;;;4881705;29;20048;-85
2023/08/07 08:41:33;;;;;;;5.75;1.75;;;15.90;98.10;;;;;;4897958;29;20569;-85
2023/08/07 08:44:02;;;;;;;7.25;2.22;;;16.00;97.90;;;;;;4882401;29;20127;-86
2023/08/07 08:46:31;;;;;;;5.75;2.13;;;16.30;97.60;;;;;;4905798;29;20068;-87
2023/08/07 08:48:59;;;;;;;7.00;2.20;;;16.50;97.00;;;;;;4885802;29;20052;-87
2023/08/07 08:51:27;;;;;;;6.30;2.17;;;16.60;96.40;;;;;;4880720;29;20122;-87
2023/08/07 08:54:35;;;;;;;6.07;2.00;;;16.50;95.70;;;;;;4864406;29;20052;-86
2023/08/07 08:57:03;;;;;;;7.97;2.65;;;16.30;96.20;;;;;;4873902;29;20049;-87
2023/08/07 08:59:31;;;;;;;7.70;1.88;;;15.90;96.50;;;;;;4893017;29;20493;-85
2023/08/07 09:02:00;;;;;;;7.05;2.42;;;15.50;97.10;;;;;;4870465;29;20135;-87
2023/08/07 09:04:29;;;;;;;8.23;2.28;;;15.10;97.50;;;;;;4864323;29;20064;-86
2023/08/07 09:06:57;;;;;;;8.98;2.35;;;14.90;98.20;;;;;;4905118;29;20044;-87
2023/08/07 09:09:24;;;;;;;9.55;2.30;;;14.90;98.40;;;;;;4881013;29;20124;-87
2023/08/07 09:11:54;;;;;;;7.95;1.85;;;14.90;98.60;;;;;;4883947;29;20044;-86
2023/08/07 09:14:26;;;;;;;5.10;1.98;;;15.00;98.70;;;;;;4867795;29;20167;-86
2023/08/07 09:16:59;;;;;;;7.68;1.73;;;15.10;98.70;;;;;;4883811;29;20075;-87
2023/08/07 09:19:26;;;;;;;8.80;2.42;;;15.20;98.60;;;;;;4895167;29;20055;-87
2023/08/07 09:21:53;;;;;;;10.82;2.40;;;15.30;98.70;;;;;;4869892;29;20076;-87
2023/08/07 09:24:22;;;;;;;7.60;2.50;;;15.60;98.70;;;;;;4862357;29;20120;-87
2023/08/07 09:26:53;;;;;;;5.78;1.98;;;15.70;98.50;;;;;;4901975;29;20404;-88
2023/08/07 09:29:22;;;;;;;7.10;2.30;;;15.90;98.40;;;;;;4893761;29;20052;-90
2023/08/07 09:31:49;;;;;;;7.63;2.35;;;16.00;98.10;;;;;;4881918;29;20493;-85
2023/08/07 09:34:20;;;;;;;6.45;2.58;;;16.10;98.00;;;;;;4760875;29;20064;-87
2023/08/07 09:36:47;;;;;;;8.40;2.58;;;16.40;97.80;;;;;;4880316;29;20147;-83
2023/08/07 09:39:14;;;;;;;6.22;1.92;;;16.60;97.50;;;;;;4852535;29;20051;-88
2023/08/07 09:41:43;;;;;;;6.80;2.50;;;16.70;96.60;;;;;;4850556;29;20048;-86
2023/08/07 09:44:11;;;;;;;7.88;2.10;;;16.60;96.50;;;;;;4896074;29;20048;-88
2023/08/07 09:46:45;;;;;;;7.55;2.28;;;16.60;96.70;;;;;;4871597;29;20055;-87
2023/08/07 09:49:13;;;;;;;7.38;2.40;;;16.60;96.60;;;;;;4895177;29;20049;-86
2023/08/07 09:51:44;;;;;;;6.70;1.65;;;16.50;96.40;;;;;;4888100;29;20508;-86
2023/08/07 09:54:11;;;;;;;7.88;1.88;;;16.60;95.90;;;;;;4899829;29;20123;-88
2023/08/07 09:56:40;;;;;;;8.30;2.53;;;16.60;95.60;;;;;;4872554;29;20095;-89
2023/08/07 09:59:11;;;;;;;4.97;1.70;;;16.60;95.60;;;;;;4873335;29;20060;-86
2023/08/07 10:01:42;;;;;;;6.05;1.75;;;16.70;95.70;;;;;;4878253;29;20847;-91
2023/08/07 10:04:15;;;;;;;6.65;2.05;;;16.80;95.80;;;;;;4872495;29;20063;-87
2023/08/07 10:06:45;;;;;;;5.85;1.98;;;16.90;95.30;;;;;;4870293;29;20048;-88
2023/08/07 10:09:12;;;;;;;7.35;2.25;;;17.00;95.00;;;;;;4895539;29;20052;-88
2023/08/07 10:11:41;;;;;;;5.00;1.63;;;17.00;94.80;;;;;;4877584;29;20466;-87
2023/08/07 10:14:17;;;;;;;5.82;1.35;;;17.10;94.50;;;;;;4877256;29;20084;-88
2023/08/07 10:16:48;;;;;;;6.10;1.60;;;17.20;94.40;;;;;;4893297;29;20044;-85
2023/08/07 10:19:16;;;;;;;3.03;1.25;;;17.50;93.90;;;;;;4874837;29;20048;-85
2023/08/07 10:21:47;;;;;;;7.47;1.45;;;17.50;93.80;;;;;;4863662;29;20096;-85
2023/08/07 10:24:41;;;;;;;3.83;1.17;;;17.60;93.50;;;;;;4879191;29;20051;-83
2023/08/07 10:27:12;;;;;;;6.60;1.77;;;17.50;93.60;;;;;;4894557;29;20128;-83
2023/08/07 10:29:40;;;;;;;9.93;1.55;;;17.30;93.10;;;;;;4892084;29;20100;-82
2023/08/07 10:32:11;;;;;;;4.53;1.25;;;17.40;93.00;;;;;;4878961;29;20080;-85
2023/08/07 10:34:46;;;;;;;5.85;1.80;;;17.50;92.70;;;;;;4878124;29;20056;-86
2023/08/07 10:37:38;;;;;;;6.57;1.50;;;17.50;92.40;;;;;;4892222;29;20052;-82
2023/08/07 10:40:12;;;;;;;5.05;1.13;;;17.70;91.20;;;;;;4895113;29;20127;-87
2023/08/07 10:42:56;;;;;;;6.68;2.10;;;17.60;90.70;;;;;;4894931;29;20486;-86
2023/08/07 10:45:24;;;;;;;4.47;1.42;;;17.70;90.90;;;;;;4886647;29;20136;-83
2023/08/07 10:47:58;;;;;;;3.75;1.55;;;17.80;91.30;;;;;;4861599;29;20044;-84
2023/08/07 10:50:53;;;;;;;5.18;1.20;;;18.00;91.30;;;;;;4879737;29;20045;-86
2023/08/07 10:53:24;;;;;;;2.95;1.20;;;18.00;91.20;;;;;;4857618;29;20060;-84
2023/08/07 10:55:54;;;;;;;4.93;1.67;;;18.20;90.80;;;;;;4880513;29;20049;-83
2023/08/07 10:58:34;;;;;;;4.43;1.40;;;18.20;90.70;;;;;;4864821;29;20041;-82
2023/08/07 11:01:29;;;;;;;4.78;1.88;;;18.10;90.90;;;;;;4892405;29;20374;-81
2023/08/07 11:04:00;;;;;;;5.55;2.00;;;17.90;90.90;;;;;;4893406;29;20052;-82
2023/08/07 11:06:32;;;;;;;3.75;1.63;;;18.10;90.90;;;;;;4873524;29;20045;-84
2023/08/07 11:09:03;;;;;;;4.35;1.27;;;18.20;90.60;;;;;;4869992;29;20059;-86
2023/08/07 11:11:39;;;;;;;8.35;1.58;;;18.40;89.50;;;;;;4890489;29;20135;-82
2023/08/07 11:14:15;;;;;;;6.25;1.83;;;18.60;88.30;;;;;;4870625;29;20059;-83
2023/08/07 11:16:44;;;;;;;6.32;1.45;;;18.60;88.10;;;;;;4880487;29;20049;-84
2023/08/07 11:19:21;;;;;;;3.67;1.35;;;18.90;86.20;;;;;;4878360;29;20421;-83
2023/08/07 11:21:48;;;;;;;5.30;1.17;;;19.20;85.70;;;;;;4895858;29;20044;-82
2023/08/07 11:24:18;;;;;;;3.30;0.95;;;19.30;84.70;;;;;;4881758;29;20475;-83
2023/08/07 11:26:47;;;;;;;5.55;1.23;;;19.60;84.70;;;;;;4878586;29;20051;-83
2023/08/07 11:29:18;;;;;;;2.22;0.90;;;19.90;83.90;;;;;;4894934;29;20056;-83
2023/08/07 11:31:46;;;;;;;;;;;20.10;83.00;;;;;;4879849;29;20048;-82
2023/08/07 11:34:18;;;;;;;6.28;1.48;;;19.80;82.90;;;;;;4887018;29;19937;-82
2023/08/07 11:36:45;;;;;;;2.03;0.80;;;19.40;82.40;;;;;;4895758;29;20048;-81
2023/08/07 11:39:14;;;;;;;2.97;0.90;;;19.20;84.20;;;;;;4900535;29;20482;-81
2023/08/07 11:42:23;;;;;;;5.07;1.13;;;19.10;85.20;;;;;;4869470;29;20044;-81
2023/08/07 11:44:52;;;;;;;3.42;0.90;;;19.10;84.50;;;;;;4887452;29;20485;-80
2023/08/07 11:47:59;;;;;;;4.50;1.42;;;19.10;84.50;;;;;;4877537;29;20123;-80
2023/08/07 11:50:32;;;;;;;3.92;1.23;;;19.00;83.70;;;;;;4863057;29;20055;-80
2023/08/07 11:53:37;;;;;;;5.63;1.33;;;19.40;82.30;;;;;;4878190;29;20048;-79
2023/08/07 11:56:07;;;;;;;5.45;1.30;;;19.30;82.90;;;;;;4899223;29;20056;-82
2023/08/07 11:58:40;;;;;;;2.85;0.90;;;19.10;83.70;;;;;;4881450;29;20696;-81
2023/08/07 12:01:12;;;;;;;4.32;1.15;;;18.80;84.50;;;;;;4899576;29;20037;-81
2023/08/07 12:03:51;;;;;;;4.72;1.40;;;18.60;83.20;;;;;;4851107;29;20537;-77
2023/08/07 12:06:18;;;;;;;3.00;1.10;;;18.50;83.50;;;;;;4892729;29;20075;-78
2023/08/07 12:09:23;;;;;;;3.97;1.40;;;18.90;83.00;;;;;;4864943;29;20128;-86
2023/08/07 12:11:56;;;;;;;4.30;1.33;;;19.50;81.50;;;;;;4871859;29;20056;-84
2023/08/07 12:14:31;;;;;;;6.35;1.58;;;20.20;79.00;;;;;;4865083;29;20121;-80
2023/08/07 12:17:03;;;;;;;7.25;1.25;;;20.70;77.10;;;;;;4893672;29;20505;-79
2023/08/07 12:19:42;;;;;;;7.90;1.23;;;21.10;75.20;;;;;;4881466;29;20051;-79
2023/08/07 12:22:11;;;;;;;4.32;1.00;;;21.40;74.10;;;;;;4878304;29;20081;-80
2023/08/07 12:24:38;;;;;;;3.97;1.58;;;21.30;73.50;;;;;;4863062;29;20234;-83
2023/08/07 12:27:14;;;;;;;6.07;1.55;;;21.00;74.30;;;;;;4851623;29;20525;-80
2023/08/07 12:29:43;;;;;;;6.07;0.90;;;21.10;73.80;;;;;;4886737;29;20080;-84
2023/08/07 12:32:18;;;;;;;5.70;1.10;;;21.00;74.10;;;;;;4864558;29;20060;-82
2023/08/07 12:34:50;;;;;;;2.53;0.85;;;20.70;75.30;;;;;;4865729;29;20048;-82
2023/08/07 12:37:20;;;;;;;4.65;1.10;;;20.40;75.70;;;;;;4876487;29;20045;-81
2023/08/07 12:39:49;;;;;;;2.83;0.80;;;20.30;75.50;;;;;;4879329;29;20199;-83
2023/08/07 12:42:40;;;;;;;3.88;1.13;;;20.00;76.90;;;;;;4856377;29;20041;-78
2023/08/07 12:45:07;;;;;;;3.97;0.75;;;20.00;77.40;;;;;;4897314;29;20091;-79
2023/08/07 12:47:35;;;;;;;3.30;1.00;;;20.00;77.60;;;;;;4891064;29;20071;-80
2023/08/07 12:50:06;;;;;;;3.20;1.10;;;19.80;78.10;;;;;;4872622;29;20053;-85
2023/08/07 12:52:33;;;;;;;4.22;1.30;;;19.60;78.70;;;;;;4870745;29;20056;-80
2023/08/07 12:55:01;;;;;;;1.25;0.60;;;19.60;77.60;;;;;;4758022;29;20040;-78
2023/08/07 12:57:28;;;;;;;1.73;0.57;;;20.00;78.00;;;;;;4906661;29;20044;-77
2023/08/07 12:59:55;;;;;;;3.15;0.80;;;21.10;76.40;;;;;;4891448;29;20041;-84
2023/08/07 13:02:24;;;;;;;2.63;0.73;;;22.00;74.20;;;;;;4879572;29;20048;-81